Time;durP1;ratioP1;P1;durP2;ratioP2;P2;SDS_P1;SDS_P2;PMS_P1;PMS_P2;Temp;Humidity;BMP_temperature;BMP_pressure;BME280_temperature;BME280_humidity;BME280_pressure;Samples;Min_cycle;Max_cycle;Signal;HPM_P1;HPM_P2
2024/04/14 00:00:29;;;;;;;1.38;1.38;;;;;;;8.64;100.00;99420.88;5427884;26;20011;-66
2024/04/14 00:02:54;;;;;;;0.40;0.40;;;;;;;8.66;100.00;99427.72;5396639;26;20014;-65
2024/04/14 00:05:19;;;;;;;0.30;0.30;;;;;;;8.64;100.00;99439.81;5428029;26;20329;-65
2024/04/14 00:07:45;;;;;;;0.30;0.30;;;;;;;8.66;100.00;99432.03;5428068;26;20011;-64
2024/04/14 00:10:10;;;;;;;0.40;0.40;;;;;;;8.64;100.00;99429.47;5396092;26;20011;-64
2024/04/14 00:12:35;;;;;;;0.60;0.60;;;;;;;8.63;100.00;99408.78;5427891;26;20030;-65
2024/04/14 00:15:01;;;;;;;0.30;0.30;;;;;;;8.63;100.00;99401.91;5427846;26;20004;-65
2024/04/14 00:17:26;;;;;;;0.40;0.40;;;;;;;8.57;100.00;99402.00;5427838;26;20011;-65
2024/04/14 00:19:52;;;;;;;0.30;0.30;;;;;;;8.58;100.00;99411.47;5428002;26;20308;-65
2024/04/14 00:22:18;;;;;;;0.40;0.40;;;;;;;8.51;100.00;99402.06;5427768;26;20003;-65
2024/04/14 00:24:43;;;;;;;0.35;0.35;;;;;;;8.52;100.00;99409.81;5427511;26;20000;-65
2024/04/14 00:27:08;;;;;;;0.40;0.40;;;;;;;8.52;100.00;99404.63;5427865;26;20321;-65
2024/04/14 00:29:34;;;;;;;0.40;0.40;;;;;;;8.43;100.00;99390.09;5427461;26;20014;-65
2024/04/14 00:31:59;;;;;;;0.43;0.43;;;;;;;8.47;100.00;99397.81;5396065;26;20423;-66
2024/04/14 00:34:24;;;;;;;0.40;0.40;;;;;;;8.48;100.00;99396.94;5427606;26;20011;-65
2024/04/14 00:36:50;;;;;;;1.02;1.02;;;;;;;8.45;100.00;99395.25;5427452;26;19996;-66
2024/04/14 00:39:15;;;;;;;1.25;1.25;;;;;;;8.43;100.00;99397.84;5427239;26;20004;-66
2024/04/14 00:41:40;;;;;;;0.38;0.38;;;;;;;8.37;100.00;99400.53;5427042;26;20014;-65
2024/04/14 00:44:06;;;;;;;0.30;0.30;;;;;;;8.32;100.00;99412.72;5427244;26;20004;-65
2024/04/14 00:46:31;;;;;;;0.40;0.40;;;;;;;8.29;100.00;99384.31;5427242;26;20456;-65
2024/04/14 00:48:57;;;;;;;0.30;0.30;;;;;;;8.25;100.00;99395.56;5427145;26;20036;-65
2024/04/14 00:51:24;;;;;;;0.55;0.55;;;;;;;8.21;100.00;99376.66;5426877;26;20007;-65
2024/04/14 00:53:49;;;;;;;0.50;0.50;;;;;;;8.19;100.00;99397.34;5427353;26;20451;-64
2024/04/14 00:56:15;;;;;;;0.40;0.40;;;;;;;8.12;100.00;99389.72;5430878;26;20014;-65
2024/04/14 00:58:40;;;;;;;0.40;0.40;;;;;;;8.11;100.00;99394.06;5399153;26;20000;-65
2024/04/14 01:01:06;;;;;;;0.55;0.55;;;;;;;8.05;100.00;99368.28;5430348;26;20332;-65
2024/04/14 01:03:33;;;;;;;0.40;0.40;;;;;;;8.00;100.00;99357.16;5430512;26;20007;-65
2024/04/14 01:05:59;;;;;;;0.40;0.40;;;;;;;7.93;100.00;99353.81;5430732;26;20003;-65
2024/04/14 01:08:25;;;;;;;0.40;0.40;;;;;;;7.80;100.00;99348.81;5430689;26;20055;-66
2024/04/14 01:10:51;;;;;;;0.40;0.40;;;;;;;7.78;100.00;99354.91;5429876;26;20012;-66
2024/04/14 01:13:16;;;;;;;0.30;0.30;;;;;;;7.68;100.00;99370.50;5430672;26;20004;-66
2024/04/14 01:15:41;;;;;;;0.45;0.45;;;;;;;7.61;100.00;99371.47;5430408;26;20019;-67
2024/04/14 01:18:08;;;;;;;0.40;0.40;;;;;;;7.59;100.00;99378.38;5430544;26;20019;-67
2024/04/14 01:20:34;;;;;;;0.40;0.40;;;;;;;7.54;100.00;99367.25;5429836;26;19999;-68
2024/04/14 01:22:59;;;;;;;0.40;0.40;;;;;;;7.43;100.00;99382.88;5398898;26;20327;-68
2024/04/14 01:25:25;;;;;;;0.57;0.57;;;;;;;7.43;100.00;99378.56;5430201;26;20023;-68
2024/04/14 01:27:51;;;;;;;0.40;0.40;;;;;;;7.38;100.00;99388.09;5398916;26;19999;-68
2024/04/14 01:30:16;;;;;;;0.40;0.40;;;;;;;7.38;100.00;99387.25;5398891;26;20000;-68
2024/04/14 01:32:42;;;;;;;0.40;0.40;;;;;;;7.30;100.00;99374.44;5399140;26;20011;-68
2024/04/14 01:35:07;;;;;;;0.40;0.40;;;;;;;7.25;100.00;99373.63;5430153;26;20024;-68
2024/04/14 01:37:33;;;;;;;0.40;0.40;;;;;;;7.18;100.00;99378.00;5398833;26;20014;-68
2024/04/14 01:39:58;;;;;;;0.50;0.50;;;;;;;7.12;100.00;99371.19;5429930;26;20049;-68
2024/04/14 01:42:24;;;;;;;0.50;0.50;;;;;;;7.12;100.00;99366.03;5430071;26;20361;-69
2024/04/14 01:44:49;;;;;;;0.40;0.40;;;;;;;7.09;100.00;99371.22;5430201;26;20031;-69
2024/04/14 01:47:15;;;;;;;0.40;0.40;;;;;;;7.08;100.00;99361.75;5429514;26;20124;-69
2024/04/14 01:49:40;;;;;;;0.40;0.40;;;;;;;7.09;100.00;99355.75;5398557;26;20000;-68
2024/04/14 01:52:06;;;;;;;0.40;0.40;;;;;;;7.11;100.00;99356.56;5429928;26;20008;-67
2024/04/14 01:54:31;;;;;;;0.52;0.52;;;;;;;7.13;100.00;99361.69;5429569;26;20076;-67
2024/04/14 01:56:56;;;;;;;0.40;0.40;;;;;;;7.16;100.00;99357.38;5430293;26;20069;-67
2024/04/14 01:59:22;;;;;;;0.40;0.40;;;;;;;7.19;100.00;99357.31;5429592;26;20478;-67
2024/04/14 02:01:47;;;;;;;0.82;0.77;;;;;;;7.19;100.00;99346.13;5429721;26;20049;-67
2024/04/14 02:04:12;;;;;;;0.40;0.40;;;;;;;7.23;100.00;99350.41;5429691;26;20031;-68
2024/04/14 02:06:38;;;;;;;0.47;0.47;;;;;;;7.21;100.00;99346.13;5428252;26;20012;-69
2024/04/14 02:09:03;;;;;;;0.50;0.50;;;;;;;7.19;100.00;99349.59;5397942;26;20003;-69
2024/04/14 02:11:29;;;;;;;0.30;0.30;;;;;;;7.30;100.00;99359.78;5429004;26;19999;-68
2024/04/14 02:13:55;;;;;;;0.40;0.40;;;;;;;7.25;100.00;99348.66;5429409;26;20002;-69
2024/04/14 02:16:20;;;;;;;0.40;0.40;;;;;;;7.27;100.00;99343.47;5428989;26;19995;-69
2024/04/14 02:18:45;;;;;;;2.15;1.95;;;;;;;7.18;100.00;99353.03;5429394;26;19999;-69
2024/04/14 02:21:11;;;;;;;0.40;0.40;;;;;;;7.12;100.00;99354.84;5397563;26;19999;-68
2024/04/14 02:23:38;;;;;;;0.40;0.40;;;;;;;6.95;100.00;99350.69;5428993;26;20114;-68
2024/04/14 02:26:04;;;;;;;0.50;0.50;;;;;;;6.91;100.00;99357.63;5429244;26;19999;-68
2024/04/14 02:28:29;;;;;;;0.40;0.40;;;;;;;6.78;100.00;99356.03;5397671;26;19999;-69
2024/04/14 02:30:55;;;;;;;0.50;0.50;;;;;;;6.71;100.00;99362.97;5429077;26;20298;-68
2024/04/14 02:33:21;;;;;;;0.40;0.40;;;;;;;6.68;100.00;99357.84;5397886;26;20000;-68
2024/04/14 02:35:53;;;;;;;0.40;0.40;;;;;;;6.66;100.00;99364.75;5428952;26;19999;-66
2024/04/14 02:38:18;;;;;;;0.40;0.40;;;;;;;6.62;100.00;99356.19;5429058;26;20000;-68
2024/04/14 02:40:56;;;;;;;0.40;0.40;;;;;;;6.65;100.00;99355.28;5428816;26;20022;-67
2024/04/14 02:43:22;;;;;;;0.65;0.65;;;;;;;6.68;100.00;99361.28;5397573;26;20000;-67
2024/04/14 02:45:47;;;;;;;0.40;0.40;;;;;;;6.69;100.00;99365.56;5396746;26;20007;-67
2024/04/14 02:48:13;;;;;;;0.40;0.40;;;;;;;6.69;100.00;99363.00;5428796;26;20057;-67
2024/04/14 02:50:38;;;;;;;0.40;0.40;;;;;;;6.64;100.00;99358.75;5428449;26;20015;-67
2024/04/14 02:53:04;;;;;;;0.40;0.40;;;;;;;6.61;100.00;99325.25;5397112;26;20003;-66
2024/04/14 02:55:30;;;;;;;1.20;1.20;;;;;;;6.50;100.00;99356.31;5428149;26;20115;-67
2024/04/14 02:57:55;;;;;;;0.40;0.40;;;;;;;6.43;100.00;99371.81;5397020;26;20020;-66
2024/04/14 03:00:21;;;;;;;0.73;0.73;;;;;;;6.37;100.00;99361.56;5397335;26;20011;-67
2024/04/14 03:02:46;;;;;;;0.40;0.40;;;;;;;6.21;98.95;99378.88;5428538;26;20444;-66
2024/04/14 03:05:11;;;;;;;0.40;0.40;;;;;;;6.14;98.19;99364.28;5428649;26;20504;-67
2024/04/14 03:07:37;;;;;;;0.40;0.40;;;;;;;6.15;97.16;99374.59;5428445;26;20009;-68
2024/04/14 03:10:02;;;;;;;0.40;0.40;;;;;;;6.16;96.25;99367.72;5397034;26;20010;-67
2024/04/14 03:12:28;;;;;;;0.38;0.38;;;;;;;6.16;96.63;99362.56;5428486;26;19999;-67
2024/04/14 03:14:53;;;;;;;0.40;0.40;;;;;;;6.15;95.50;99356.56;5429002;26;20000;-67
2024/04/14 03:17:20;;;;;;;0.40;0.40;;;;;;;6.11;95.47;99351.44;5428419;26;20036;-67
2024/04/14 03:19:50;;;;;;;0.60;0.60;;;;;;;6.03;94.96;99364.34;5396866;26;19999;-67
2024/04/14 03:22:16;;;;;;;0.40;0.40;;;;;;;6.06;94.24;99361.78;5428426;26;20068;-67
2024/04/14 03:24:41;;;;;;;0.40;0.40;;;;;;;6.07;94.14;99354.03;5428378;26;20011;-67
2024/04/14 03:27:06;;;;;;;0.75;0.75;;;;;;;6.07;93.35;99366.09;5428494;26;19999;-67
2024/04/14 03:29:32;;;;;;;0.40;0.40;;;;;;;6.03;93.07;99356.63;5428038;26;19999;-67
2024/04/14 03:31:57;;;;;;;0.47;0.47;;;;;;;5.97;93.03;99357.53;5428651;26;20000;-67
2024/04/14 03:34:22;;;;;;;0.50;0.50;;;;;;;6.03;92.89;99352.31;5428371;26;20003;-67
2024/04/14 03:36:48;;;;;;;0.40;0.40;;;;;;;5.98;92.99;99364.38;5428435;26;20004;-68
2024/04/14 03:39:13;;;;;;;0.40;0.40;;;;;;;6.05;92.47;99357.50;5427517;26;20000;-67
2024/04/14 03:41:39;;;;;;;0.40;0.40;;;;;;;6.07;92.37;99332.59;5427600;26;20007;-66
2024/04/14 03:44:04;;;;;;;0.55;0.55;;;;;;;6.12;92.59;99361.72;5396634;26;20063;-67
2024/04/14 03:46:29;;;;;;;0.40;0.40;;;;;;;6.12;92.45;99361.72;5427662;26;20000;-66
2024/04/14 03:48:55;;;;;;;0.40;0.40;;;;;;;6.12;92.25;99351.44;5427812;26;20011;-68
2024/04/14 03:51:20;;;;;;;0.40;0.40;;;;;;;6.14;91.49;99365.16;5427821;26;20011;-68
2024/04/14 03:53:45;;;;;;;0.40;0.40;;;;;;;6.14;90.89;99348.84;5427551;26;20011;-67
2024/04/14 03:56:11;;;;;;;0.77;0.77;;;;;;;6.14;91.71;99372.03;5427212;26;20011;-67
2024/04/14 03:58:36;;;;;;;0.50;0.50;;;;;;;6.15;91.49;99353.16;5427578;26;20000;-67
2024/04/14 04:01:01;;;;;;;0.50;0.50;;;;;;;6.16;91.34;99357.41;5427655;26;19999;-67
2024/04/14 04:03:27;;;;;;;0.40;0.40;;;;;;;6.12;90.76;99366.88;5427703;26;19999;-68
2024/04/14 04:05:55;;;;;;;0.40;0.40;;;;;;;6.13;89.96;99365.16;5427935;26;20415;-67
2024/04/14 04:08:24;;;;;;;1.13;1.13;;;;;;;6.12;89.79;99359.16;5427684;26;20011;-66
2024/04/14 04:11:03;;;;;;;0.40;0.40;;;;;;;6.16;89.08;99357.41;5427163;26;20007;-66
2024/04/14 04:13:30;;;;;;;0.40;0.40;;;;;;;6.13;88.96;99367.75;5427961;26;20000;-67
2024/04/14 04:15:59;;;;;;;5.18;4.70;;;;;;;6.14;89.07;99380.63;5427733;26;20079;-68
2024/04/14 04:18:25;;;;;;;1.50;1.40;;;;;;;6.19;89.11;99368.56;5427636;26;19999;-66
2024/04/14 04:21:00;;;;;;;0.40;0.40;;;;;;;6.24;89.16;99383.13;5427235;26;20014;-68
2024/04/14 04:23:27;;;;;;;0.40;0.40;;;;;;;6.25;88.96;99374.53;5427274;26;20000;-67
2024/04/14 04:25:54;;;;;;;0.40;0.40;;;;;;;6.25;88.88;99366.78;5426837;26;20424;-67
2024/04/14 04:28:20;;;;;;;0.40;0.40;;;;;;;6.27;88.32;99371.09;5427318;26;19999;-67
2024/04/14 04:30:45;;;;;;;0.40;0.40;;;;;;;6.29;87.66;99325.50;5430311;26;20026;-67
2024/04/14 04:33:11;;;;;;;0.40;0.40;;;;;;;6.26;86.63;99356.47;5431057;26;20076;-67
2024/04/14 04:35:36;;;;;;;0.50;0.50;;;;;;;6.26;86.20;99342.75;5430796;26;20003;-66
2024/04/14 04:38:01;;;;;;;0.50;0.50;;;;;;;6.29;86.33;99379.66;5399155;26;20014;-67
2024/04/14 04:40:27;;;;;;;0.35;0.35;;;;;;;6.29;86.62;99365.91;5430244;26;19999;-65
2024/04/14 04:42:52;;;;;;;0.40;0.40;;;;;;;6.28;85.65;99359.91;5398904;26;20004;-67
2024/04/14 04:45:18;;;;;;;5.35;1.90;;;;;;;6.32;85.60;99371.06;5399068;26;20000;-69
2024/04/14 04:47:44;;;;;;;0.40;0.40;;;;;;;6.35;85.87;99375.31;5430871;26;20316;-67
2024/04/14 04:50:09;;;;;;;0.40;0.40;;;;;;;6.37;86.02;99361.56;5430527;26;20014;-67
2024/04/14 04:52:35;;;;;;;2.47;2.38;;;;;;;6.31;85.29;99390.81;5430445;26;20355;-67
2024/04/14 04:55:00;;;;;;;0.40;0.40;;;;;;;6.36;85.87;99364.16;5398850;26;20008;-67
2024/04/14 04:57:26;;;;;;;0.40;0.40;;;;;;;6.29;84.76;99369.34;5430441;26;20007;-67
2024/04/14 04:59:51;;;;;;;0.40;0.40;;;;;;;6.38;85.55;99342.66;5430481;26;20007;-67
2024/04/14 05:02:17;;;;;;;0.40;0.40;;;;;;;6.34;84.92;99366.75;5398616;26;20000;-67
2024/04/14 05:04:42;;;;;;;0.50;0.50;;;;;;;6.37;86.11;99320.31;5399569;26;20006;-66
2024/04/14 05:07:07;;;;;;;0.40;0.40;;;;;;;6.29;84.81;99337.56;5430854;26;20003;-66
2024/04/14 05:09:33;;;;;;;0.40;0.40;;;;;;;6.34;84.43;99335.81;5429228;26;20003;-67
2024/04/14 05:11:58;;;;;;;0.50;0.50;;;;;;;6.38;84.36;99352.97;5429908;26;20010;-67
2024/04/14 05:14:24;;;;;;;0.43;0.43;;;;;;;6.44;83.89;99350.31;5430546;26;20318;-68
2024/04/14 05:16:49;;;;;;;0.40;0.40;;;;;;;6.56;84.12;99361.41;5430511;26;20077;-67
2024/04/14 05:19:14;;;;;;;0.40;0.40;;;;;;;6.50;84.08;99351.97;5430523;26;20004;-67
2024/04/14 05:21:40;;;;;;;0.40;0.40;;;;;;;6.45;83.39;99344.28;5430071;26;19999;-67
2024/04/14 05:24:07;;;;;;;0.47;0.47;;;;;;;6.49;82.92;99364.88;5430275;26;20007;-68
2024/04/14 05:26:33;;;;;;;0.45;0.45;;;;;;;6.52;83.28;99354.53;5398704;26;20026;-68
2024/04/14 05:28:58;;;;;;;0.40;0.40;;;;;;;6.56;82.98;99345.94;5398791;26;20004;-65
2024/04/14 05:31:24;;;;;;;0.40;0.40;;;;;;;6.62;83.40;99360.47;5430012;26;20466;-67
2024/04/14 05:33:54;;;;;;;0.50;0.50;;;;;;;6.60;83.22;99351.94;5430472;26;20420;-69
2024/04/14 05:36:20;;;;;;;0.40;0.40;;;;;;;6.64;83.06;99346.72;5430133;26;20003;-68
2024/04/14 05:38:47;;;;;;;0.57;0.57;;;;;;;6.73;82.80;99344.91;5430344;26;20018;-68
2024/04/14 05:41:13;;;;;;;0.40;0.40;;;;;;;6.74;81.97;99347.47;5428181;26;19999;-67
2024/04/14 05:43:39;;;;;;;0.40;0.40;;;;;;;6.84;83.12;99334.50;5398428;26;20010;-68
2024/04/14 05:46:04;;;;;;;0.50;0.50;;;;;;;7.06;82.58;99341.13;5429971;26;20006;-69
2024/04/14 05:48:29;;;;;;;0.40;0.40;;;;;;;7.58;83.26;99337.94;5430031;26;20015;-68
2024/04/14 05:50:55;;;;;;;0.40;0.40;;;;;;;7.94;81.46;99333.09;5429591;26;20000;-66
2024/04/14 05:53:20;;;;;;;0.40;0.40;;;;;;;8.43;80.60;99353.06;5429646;26;20012;-68
2024/04/14 05:55:45;;;;;;;0.30;0.30;;;;;;;8.60;77.78;99360.56;5429515;26;20372;-68
2024/04/14 05:58:11;;;;;;;0.65;0.63;;;;;;;8.35;76.33;99352.31;5430092;26;20000;-67
2024/04/14 06:00:36;;;;;;;2.80;2.67;;;;;;;8.03;75.66;99360.56;5429342;26;20082;-67
2024/04/14 06:03:01;;;;;;;0.40;0.40;;;;;;;7.87;75.87;99359.94;5429744;26;20010;-68
2024/04/14 06:05:27;;;;;;;0.40;0.40;;;;;;;7.75;75.54;99352.31;5398267;26;20053;-67
2024/04/14 06:07:52;;;;;;;2.92;2.67;;;;;;;7.64;75.84;99352.47;5429431;26;20064;-67
2024/04/14 06:10:17;;;;;;;0.50;0.50;;;;;;;7.46;75.48;99353.59;5429495;26;20003;-67
2024/04/14 06:12:43;;;;;;;0.40;0.40;;;;;;;7.40;76.21;99355.38;5397868;26;20046;-67
2024/04/14 06:15:08;;;;;;;0.40;0.40;;;;;;;7.55;76.60;99333.66;5429217;26;20003;-67
2024/04/14 06:17:33;;;;;;;0.40;0.40;;;;;;;7.78;75.72;99339.41;5429434;26;20015;-67
2024/04/14 06:19:59;;;;;;;1.67;1.67;;;;;;;7.78;75.16;99353.16;5429143;26;20015;-67
2024/04/14 06:22:24;;;;;;;0.30;0.30;;;;;;;7.79;75.66;99356.59;5429323;26;20004;-67
2024/04/14 06:24:50;;;;;;;0.40;0.40;;;;;;;7.77;75.27;99342.84;5429366;26;20035;-68
2024/04/14 06:27:15;;;;;;;0.40;0.40;;;;;;;7.82;75.85;99356.56;5429484;26;19999;-68
2024/04/14 06:29:40;;;;;;;0.43;0.43;;;;;;;7.91;75.67;99356.41;5429009;26;20037;-68
2024/04/14 06:32:06;;;;;;;0.40;0.40;;;;;;;8.04;74.17;99327.78;5428856;26;20018;-69
2024/04/14 06:34:31;;;;;;;0.40;0.40;;;;;;;8.26;75.16;99350.75;5429312;26;20072;-65
2024/04/14 06:36:56;;;;;;;0.45;0.45;;;;;;;8.42;74.34;99353.91;5429262;26;20000;-68
2024/04/14 06:39:22;;;;;;;0.40;0.40;;;;;;;8.75;73.80;99358.59;5429370;26;20072;-67
2024/04/14 06:41:47;;;;;;;0.40;0.40;;;;;;;8.95;73.24;99341.81;5428976;26;20007;-69
2024/04/14 06:44:12;;;;;;;0.30;0.30;;;;;;;9.36;72.78;99371.22;5429014;26;20066;-67
2024/04/14 06:46:38;;;;;;;0.40;0.40;;;;;;;9.68;71.79;99350.72;5428722;26;19999;-68
2024/04/14 06:49:03;;;;;;;0.40;0.40;;;;;;;9.87;70.65;99350.31;5397207;26;19999;-68
2024/04/14 06:51:28;;;;;;;0.30;0.30;;;;;;;10.14;70.34;99351.41;5397109;26;19999;-66
2024/04/14 06:53:56;;;;;;;1.30;1.30;;;;;;;10.15;70.75;99355.72;5428410;26;20027;-67
2024/04/14 06:56:21;;;;;;;5.20;2.78;;;;;;;10.08;67.93;99255.59;5396970;26;20015;-68
2024/04/14 06:58:47;;;;;;;0.40;0.40;;;;;;;9.87;67.85;99361.53;5428642;26;20003;-68
2024/04/14 07:01:12;;;;;;;0.40;0.40;;;;;;;9.86;67.82;99372.78;5427151;26;20003;-67
2024/04/14 07:03:37;;;;;;;1.58;1.48;;;;;;;9.83;67.23;99370.28;5428591;26;20018;-67
2024/04/14 07:06:03;;;;;;;0.40;0.40;;;;;;;9.79;66.40;99379.00;5428697;26;20027;-67
2024/04/14 07:08:28;;;;;;;0.40;0.40;;;;;;;9.66;66.97;99389.63;5428608;26;20014;-67
2024/04/14 07:10:54;;;;;;;0.40;0.40;;;;;;;9.67;68.17;99382.72;5427920;26;20013;-67
2024/04/14 07:13:19;;;;;;;0.40;0.40;;;;;;;9.61;67.34;99396.66;5428624;26;20031;-68
2024/04/14 07:15:44;;;;;;;0.35;0.35;;;;;;;9.70;67.13;99389.56;5397192;26;20049;-68
2024/04/14 07:18:10;;;;;;;0.40;0.40;;;;;;;9.98;66.93;99373.41;5428499;26;20406;-68
2024/04/14 07:20:38;;;;;;;0.43;0.43;;;;;;;10.33;67.37;99387.31;5428538;26;20000;-67
2024/04/14 07:23:04;;;;;;;0.30;0.30;;;;;;;10.48;67.40;99393.88;5428584;26;20014;-68
2024/04/14 07:25:29;;;;;;;16.25;2.47;;;;;;;10.80;65.97;99386.19;5396819;26;19999;-68
2024/04/14 07:27:54;;;;;;;0.70;0.70;;;;;;;11.06;67.33;99369.06;5428650;26;20053;-67
2024/04/14 07:30:20;;;;;;;3.92;1.50;;;;;;;11.18;64.50;99403.41;5427417;26;20053;-67
2024/04/14 07:32:46;;;;;;;0.30;0.30;;;;;;;10.96;63.55;99370.22;5428217;26;20319;-67
2024/04/14 07:35:11;;;;;;;0.30;0.30;;;;;;;11.10;64.65;99391.44;5396352;26;20011;-68
2024/04/14 07:37:36;;;;;;;11.27;4.60;;;;;;;11.07;64.03;99412.31;5427879;26;20003;-68
2024/04/14 07:40:02;;;;;;;0.20;0.20;;;;;;;11.09;64.38;99394.94;5427667;26;20004;-66
2024/04/14 07:42:27;;;;;;;0.30;0.30;;;;;;;11.33;63.20;99413.34;5427835;26;20509;-67
2024/04/14 07:44:52;;;;;;;0.30;0.30;;;;;;;11.58;61.79;99398.81;5427514;26;20466;-67
2024/04/14 07:47:18;;;;;;;0.32;0.32;;;;;;;11.17;61.47;99430.28;5427753;26;20003;-67
2024/04/14 07:49:43;;;;;;;0.68;0.68;;;;;;;10.78;61.36;99394.00;5427904;26;20011;-66
2024/04/14 07:52:08;;;;;;;5.40;1.33;;;;;;;10.52;62.89;99446.56;5427626;26;20018;-66
2024/04/14 07:54:34;;;;;;;1.27;1.10;;;;;;;10.28;63.87;99443.63;5427811;26;20323;-66
2024/04/14 07:57:01;;;;;;;2.13;0.82;;;;;;;9.99;63.63;99442.53;5428040;26;20000;-69
2024/04/14 07:59:27;;;;;;;9.18;2.47;;;;;;;9.95;63.91;99444.34;5427960;26;20011;-66
2024/04/14 08:01:52;;;;;;;0.82;0.82;;;;;;;9.91;64.92;99466.03;5427621;26;20032;-67
2024/04/14 08:04:17;;;;;;;6.80;1.63;;;;;;;10.20;64.99;99469.75;5428517;26;20007;-67
2024/04/14 08:06:43;;;;;;;14.15;2.75;;;;;;;10.39;64.92;99427.81;5431465;26;20014;-68
2024/04/14 08:09:08;;;;;;;0.60;0.60;;;;;;;10.98;64.61;99448.91;5431035;26;20451;-66
2024/04/14 08:11:34;;;;;;;4.28;2.42;;;;;;;11.23;62.63;99419.72;5430898;26;20011;-68
2024/04/14 08:14:00;;;;;;;1.42;1.33;;;;;;;11.12;61.28;99454.59;5431127;26;20000;-67
2024/04/14 08:16:25;;;;;;;0.98;0.98;;;;;;;10.78;62.30;99460.66;5430836;26;20000;-67
2024/04/14 08:18:50;;;;;;;2.83;2.15;;;;;;;10.50;63.86;99479.47;5430965;26;20014;-67
2024/04/14 08:21:16;;;;;;;4.57;1.20;;;;;;;10.29;64.64;99484.22;5430734;26;20008;-66
2024/04/14 08:23:41;;;;;;;2.45;1.55;;;;;;;10.09;64.11;99482.94;5431012;26;20015;-68
2024/04/14 08:26:07;;;;;;;0.85;0.68;;;;;;;10.13;65.50;99476.78;5431085;26;20003;-68
2024/04/14 08:28:32;;;;;;;3.30;2.13;;;;;;;10.12;65.81;99493.25;5431182;26;20023;-67
2024/04/14 08:30:58;;;;;;;9.60;1.42;;;;;;;9.94;64.59;99472.88;5431123;26;20027;-68
2024/04/14 08:33:23;;;;;;;11.85;0.85;;;;;;;9.82;66.47;99480.03;5430891;26;20010;-67
2024/04/14 08:35:48;;;;;;;0.63;0.47;;;;;;;9.85;65.49;99500.72;5430909;26;20015;-67
2024/04/14 08:38:14;;;;;;;5.05;2.05;;;;;;;9.77;66.53;99482.72;5430647;26;20035;-68
2024/04/14 08:40:39;;;;;;;3.15;1.50;;;;;;;9.90;66.20;99495.44;5430358;26;20010;-67
2024/04/14 08:43:04;;;;;;;15.50;1.63;;;;;;;9.91;65.98;99479.84;5430749;26;20004;-67
2024/04/14 08:45:32;;;;;;;4.35;1.42;;;;;;;10.28;65.89;99480.81;5430687;26;20004;-68
2024/04/14 08:47:59;;;;;;;0.40;0.40;;;;;;;10.47;63.59;99469.16;5430772;26;19999;-68
2024/04/14 08:50:24;;;;;;;6.85;0.90;;;;;;;10.56;63.59;99492.31;5430524;26;20001;-66
2024/04/14 08:52:50;;;;;;;1.42;0.80;;;;;;;11.10;63.29;99476.34;5399384;26;20010;-68
2024/04/14 08:55:16;;;;;;;4.50;1.65;;;;;;;11.08;63.20;99507.53;5398910;26;20010;-69
2024/04/14 08:57:42;;;;;;;4.25;0.77;;;;;;;11.25;62.66;99482.84;5428956;26;20572;-68
2024/04/14 09:00:18;;;;;;;1.10;1.02;;;;;;;11.49;62.26;99475.31;5430134;26;20012;-66
2024/04/14 09:02:45;;;;;;;0.30;0.30;;;;;;;11.79;61.69;99485.75;5430802;26;20385;-67
2024/04/14 09:05:12;;;;;;;9.27;1.02;;;;;;;12.22;60.45;99477.63;5430840;26;20012;-66
2024/04/14 09:07:41;;;;;;;1.67;1.45;;;;;;;12.63;58.37;99491.13;5398822;26;20064;-66
2024/04/14 09:10:06;;;;;;;1.98;1.30;;;;;;;13.04;57.21;99489.78;5429963;26;19996;-66
2024/04/14 09:12:32;;;;;;;12.35;1.67;;;;;;;13.33;57.55;99498.38;5430194;26;20324;-66
2024/04/14 09:14:57;;;;;;;2.22;1.08;;;;;;;13.71;56.14;99484.06;5430216;26;20000;-67
2024/04/14 09:17:23;;;;;;;3.75;1.05;;;;;;;13.72;55.94;99493.59;5430077;26;19999;-68
2024/04/14 09:19:48;;;;;;;5.75;1.60;;;;;;;13.83;55.50;99514.94;5430208;26;20017;-68
2024/04/14 09:22:14;;;;;;;5.57;2.03;;;;;;;14.05;55.00;99513.28;5430018;26;20066;-68
2024/04/14 09:24:40;;;;;;;5.82;1.10;;;;;;;14.07;54.63;99533.22;5429817;26;20053;-67
2024/04/14 09:27:05;;;;;;;1.23;1.17;;;;;;;13.94;53.41;99503.25;5428584;26;20035;-68
2024/04/14 09:29:30;;;;;;;11.60;3.40;;;;;;;13.45;54.49;99535.38;5430070;26;20077;-67
2024/04/14 09:31:57;;;;;;;7.72;2.05;;;;;;;13.50;55.26;99543.88;5397841;26;20010;-68
2024/04/14 09:34:22;;;;;;;9.57;3.03;;;;;;;13.78;54.73;99522.06;5428427;26;19999;-67
2024/04/14 09:36:51;;;;;;;3.45;1.88;;;;;;;14.16;53.96;99536.38;5429901;26;20018;-67
2024/04/14 09:39:18;;;;;;;1.00;0.82;;;;;;;14.25;52.76;99528.19;5430190;26;20053;-66
2024/04/14 09:41:44;;;;;;;0.20;0.20;;;;;;;13.86;52.44;99530.47;5397778;26;19999;-66
2024/04/14 09:44:11;;;;;;;1.45;0.95;;;;;;;13.63;52.61;99534.75;5429908;26;20003;-67
2024/04/14 09:46:37;;;;;;;6.43;1.83;;;;;;;13.58;54.66;99557.53;5429261;26;20071;-66
2024/04/14 09:49:04;;;;;;;3.72;1.55;;;;;;;14.04;55.61;99538.50;5429741;26;20022;-66
2024/04/14 09:51:30;;;;;;;3.45;1.25;;;;;;;14.44;54.72;99545.78;5428841;26;20025;-64
2024/04/14 09:53:56;;;;;;;8.48;1.05;;;;;;;14.50;52.91;99553.38;5429584;26;20000;-66
2024/04/14 09:56:23;;;;;;;11.90;1.40;;;;;;;14.15;52.21;99545.13;5429131;26;20007;-66
2024/04/14 09:58:49;;;;;;;1.48;0.85;;;;;;;13.84;53.63;99554.91;5429441;26;20015;-66
2024/04/14 10:01:20;;;;;;;11.18;1.45;;;;;;;13.78;54.67;99574.25;5429374;26;20003;-66
2024/04/14 10:03:51;;;;;;;5.57;2.72;;;;;;;13.86;55.26;99577.44;5429583;26;20004;-66
2024/04/14 10:06:18;;;;;;;3.83;1.60;;;;;;;14.34;54.22;99561.81;5428922;26;20003;-65
2024/04/14 10:08:43;;;;;;;9.82;1.13;;;;;;;14.44;52.35;99556.22;5429156;26;20374;-66
2024/04/14 10:11:09;;;;;;;1.70;0.70;;;;;;;14.19;51.75;99575.41;5397575;26;20004;-68
2024/04/14 10:13:49;;;;;;;13.32;2.40;;;;;;;14.25;52.70;99585.63;5429765;26;19999;-66
2024/04/14 10:16:17;;;;;;;12.10;1.88;;;;;;;13.88;51.91;99570.38;5429575;26;20008;-66
2024/04/14 10:18:43;;;;;;;10.60;2.22;;;;;;;13.27;53.62;99568.97;5428862;26;20075;-67
2024/04/14 10:21:12;;;;;;;11.80;1.48;;;;;;;12.71;54.13;99571.59;5428947;26;19995;-67
2024/04/14 10:23:46;;;;;;;3.20;1.38;;;;;;;11.98;54.64;99584.91;5429491;26;20053;-68
2024/04/14 10:26:15;;;;;;;4.80;1.65;;;;;;;11.37;56.86;99591.69;5429101;26;20000;-68
2024/04/14 10:28:54;;;;;;;3.67;1.48;;;;;;;11.17;57.78;99589.56;5397321;26;19999;-67
2024/04/14 10:31:28;;;;;;;2.55;1.77;;;;;;;10.88;58.83;99591.97;5429218;26;20022;-67
2024/04/14 10:34:11;;;;;;;3.22;0.50;;;;;;;10.69;59.47;99598.47;5429315;26;20035;-69
2024/04/14 10:36:39;;;;;;;7.63;0.57;;;;;;;10.54;61.19;99585.78;5429457;26;20459;-65
2024/04/14 10:39:06;;;;;;;11.60;1.52;;;;;;;10.51;60.48;99582.41;5429416;26;19999;-69
2024/04/14 10:41:32;;;;;;;3.75;1.52;;;;;;;10.27;60.88;99592.38;5429004;26;20041;-67
2024/04/14 10:43:57;;;;;;;2.00;1.60;;;;;;;10.25;61.54;99586.38;5429231;26;20007;-69
2024/04/14 10:46:22;;;;;;;2.60;1.50;;;;;;;10.23;61.95;99601.09;5429017;26;19999;-67
2024/04/14 10:48:48;;;;;;;4.03;1.05;;;;;;;10.22;62.14;99597.69;5428759;26;20000;-68
2024/04/14 10:51:13;;;;;;;28.95;1.10;;;;;;;10.39;62.05;99584.34;5428418;26;20003;-66
2024/04/14 10:53:39;;;;;;;3.58;1.27;;;;;;;10.63;62.03;99613.28;5428896;26;20097;-66
2024/04/14 10:56:06;;;;;;;11.02;1.50;;;;;;;10.76;60.88;99577.53;5428188;26;20003;-66
2024/04/14 10:58:33;;;;;;;1.30;0.98;;;;;;;11.22;60.64;99579.06;5428628;26;20440;-68
2024/04/14 11:00:59;;;;;;;7.65;2.38;;;;;;;11.33;58.89;99576.19;5397309;26;19995;-67
2024/04/14 11:03:26;;;;;;;2.83;1.45;;;;;;;11.45;59.25;99572.47;5428065;26;20018;-67
2024/04/14 11:05:51;;;;;;;0.40;0.40;;;;;;;12.10;58.59;99581.16;5428231;26;20050;-65
2024/04/14 11:08:17;;;;;;;1.98;1.85;;;;;;;12.73;56.70;99574.16;5428287;26;20011;-66
2024/04/14 11:10:44;;;;;;;3.95;1.02;;;;;;;13.42;54.43;99570.19;5427853;26;20003;-65
2024/04/14 11:13:15;;;;;;;6.85;1.58;;;;;;;13.67;53.03;99586.81;5397130;26;20023;-67
2024/04/14 11:15:44;;;;;;;3.43;1.53;;;;;;;13.24;54.00;99587.31;5428480;26;20043;-67
2024/04/14 11:18:09;;;;;;;7.18;1.42;;;;;;;13.08;54.56;99590.41;5428129;26;20319;-67
2024/04/14 11:20:35;;;;;;;8.52;0.98;;;;;;;13.02;53.35;99569.75;5428257;26;20003;-65
2024/04/14 11:23:01;;;;;;;1.42;1.13;;;;;;;12.72;54.21;99598.47;5396759;26;20054;-67
2024/04/14 11:25:28;;;;;;;3.22;1.05;;;;;;;12.45;55.58;99601.88;5427999;26;20460;-66
2024/04/14 11:27:54;;;;;;;0.30;0.30;;;;;;;12.12;55.90;99588.94;5427724;26;20011;-65
2024/04/14 11:30:19;;;;;;;2.72;0.80;;;;;;;11.83;56.71;99606.13;5427594;26;20011;-66